sensor_id;sensor_type;location;lat;lon;timestamp;P1;durP1;ratioP1;P2;durP2;ratioP2
32297;SDS011;18782;48.984;8.548;2023-05-07T00:02:21;3.83;;;2.00;;
32297;SDS011;18782;48.984;8.548;2023-05-07T00:04:49;5.78;;;1.73;;
32297;SDS011;18782;48.984;8.548;2023-05-07T00:07:18;2.65;;;1.65;;
32297;SDS011;18782;48.984;8.548;2023-05-07T00:09:45;4.18;;;1.75;;
32297;SDS011;18782;48.984;8.548;2023-05-07T00:12:13;5.18;;;2.00;;
32297;SDS011;18782;48.984;8.548;2023-05-07T00:14:42;3.45;;;1.85;;
32297;SDS011;18782;48.984;8.548;2023-05-07T00:17:09;2.72;;;1.85;;
32297;SDS011;18782;48.984;8.548;2023-05-07T00:19:37;5.30;;;2.40;;
32297;SDS011;18782;48.984;8.548;2023-05-07T00:22:05;4.85;;;1.60;;
32297;SDS011;18782;48.984;8.548;2023-05-07T00:24:32;4.22;;;1.83;;
32297;SDS011;18782;48.984;8.548;2023-05-07T00:27:00;3.45;;;1.77;;
32297;SDS011;18782;48.984;8.548;2023-05-07T00:29:28;5.05;;;1.90;;
32297;SDS011;18782;48.984;8.548;2023-05-07T00:31:57;3.17;;;1.85;;
32297;SDS011;18782;48.984;8.548;2023-05-07T00:34:24;3.35;;;2.03;;
32297;SDS011;18782;48.984;8.548;2023-05-07T00:36:52;3.15;;;2.08;;
32297;SDS011;18782;48.984;8.548;2023-05-07T00:39:20;3.47;;;1.80;;
32297;SDS011;18782;48.984;8.548;2023-05-07T00:41:47;2.78;;;1.50;;
32297;SDS011;18782;48.984;8.548;2023-05-07T00:44:15;3.53;;;1.67;;
32297;SDS011;18782;48.984;8.548;2023-05-07T00:46:42;3.47;;;1.77;;
32297;SDS011;18782;48.984;8.548;2023-05-07T00:49:12;4.60;;;2.05;;
32297;SDS011;18782;48.984;8.548;2023-05-07T00:51:40;4.47;;;2.25;;
32297;SDS011;18782;48.984;8.548;2023-05-07T00:54:07;4.30;;;1.85;;
32297;SDS011;18782;48.984;8.548;2023-05-07T00:56:35;3.67;;;1.85;;
32297;SDS011;18782;48.984;8.548;2023-05-07T00:59:05;2.53;;;1.73;;
32297;SDS011;18782;48.984;8.548;2023-05-07T01:01:33;3.90;;;2.10;;
32297;SDS011;18782;48.984;8.548;2023-05-07T01:04:01;3.88;;;2.08;;
32297;SDS011;18782;48.984;8.548;2023-05-07T01:06:30;3.28;;;1.90;;
32297;SDS011;18782;48.984;8.548;2023-05-07T01:09:00;3.33;;;2.10;;
32297;SDS011;18782;48.984;8.548;2023-05-07T01:11:30;2.80;;;1.92;;
32297;SDS011;18782;48.984;8.548;2023-05-07T01:13:58;3.03;;;1.85;;
32297;SDS011;18782;48.984;8.548;2023-05-07T01:16:27;4.40;;;1.88;;
32297;SDS011;18782;48.984;8.548;2023-05-07T01:18:54;4.57;;;2.10;;
32297;SDS011;18782;48.984;8.548;2023-05-07T01:21:23;3.35;;;1.90;;
32297;SDS011;18782;48.984;8.548;2023-05-07T01:23:57;5.13;;;2.30;;
32297;SDS011;18782;48.984;8.548;2023-05-07T01:26:27;3.65;;;2.00;;
32297;SDS011;18782;48.984;8.548;2023-05-07T01:28:54;6.78;;;2.35;;
32297;SDS011;18782;48.984;8.548;2023-05-07T01:31:22;3.15;;;1.98;;
32297;SDS011;18782;48.984;8.548;2023-05-07T01:33:51;2.90;;;1.73;;
32297;SDS011;18782;48.984;8.548;2023-05-07T01:36:20;3.83;;;1.95;;
32297;SDS011;18782;48.984;8.548;2023-05-07T01:38:52;7.88;;;2.38;;
32297;SDS011;18782;48.984;8.548;2023-05-07T01:41:21;2.63;;;1.88;;
32297;SDS011;18782;48.984;8.548;2023-05-07T01:43:49;2.75;;;2.08;;
32297;SDS011;18782;48.984;8.548;2023-05-07T01:46:18;3.05;;;2.10;;
32297;SDS011;18782;48.984;8.548;2023-05-07T01:48:46;4.03;;;2.20;;
32297;SDS011;18782;48.984;8.548;2023-05-07T01:51:14;4.25;;;2.35;;
32297;SDS011;18782;48.984;8.548;2023-05-07T01:53:42;4.43;;;2.20;;
32297;SDS011;18782;48.984;8.548;2023-05-07T01:56:10;4.63;;;1.98;;
32297;SDS011;18782;48.984;8.548;2023-05-07T01:58:41;6.47;;;2.60;;
32297;SDS011;18782;48.984;8.548;2023-05-07T02:13:33;3.45;;;2.30;;
32297;SDS011;18782;48.984;8.548;2023-05-07T02:16:04;3.33;;;2.38;;
32297;SDS011;18782;48.984;8.548;2023-05-07T02:18:32;3.72;;;2.03;;
32297;SDS011;18782;48.984;8.548;2023-05-07T02:21:00;3.97;;;2.38;;
32297;SDS011;18782;48.984;8.548;2023-05-07T02:23:27;4.10;;;2.67;;
32297;SDS011;18782;48.984;8.548;2023-05-07T02:25:56;4.60;;;2.38;;
32297;SDS011;18782;48.984;8.548;2023-05-07T02:28:23;5.00;;;2.20;;
32297;SDS011;18782;48.984;8.548;2023-05-07T02:31:03;5.55;;;2.30;;
32297;SDS011;18782;48.984;8.548;2023-05-07T02:33:32;3.88;;;2.15;;
32297;SDS011;18782;48.984;8.548;2023-05-07T02:36:09;3.70;;;2.20;;
32297;SDS011;18782;48.984;8.548;2023-05-07T02:38:49;4.53;;;2.55;;
32297;SDS011;18782;48.984;8.548;2023-05-07T02:41:16;4.22;;;2.40;;
32297;SDS011;18782;48.984;8.548;2023-05-07T02:43:44;4.85;;;2.40;;
32297;SDS011;18782;48.984;8.548;2023-05-07T02:46:13;4.20;;;2.28;;
32297;SDS011;18782;48.984;8.548;2023-05-07T02:51:13;5.03;;;2.28;;
32297;SDS011;18782;48.984;8.548;2023-05-07T02:53:42;3.35;;;2.10;;
32297;SDS011;18782;48.984;8.548;2023-05-07T02:56:09;4.38;;;2.28;;
32297;SDS011;18782;48.984;8.548;2023-05-07T02:58:37;5.35;;;2.03;;
32297;SDS011;18782;48.984;8.548;2023-05-07T03:01:05;3.25;;;2.45;;
32297;SDS011;18782;48.984;8.548;2023-05-07T03:03:39;4.63;;;2.30;;
32297;SDS011;18782;48.984;8.548;2023-05-07T03:06:07;4.20;;;2.40;;
32297;SDS011;18782;48.984;8.548;2023-05-07T03:08:35;4.93;;;2.40;;
32297;SDS011;18782;48.984;8.548;2023-05-07T03:11:03;2.80;;;1.95;;
32297;SDS011;18782;48.984;8.548;2023-05-07T03:13:31;4.70;;;2.22;;
32297;SDS011;18782;48.984;8.548;2023-05-07T03:15:58;3.38;;;2.05;;
32297;SDS011;18782;48.984;8.548;2023-05-07T03:18:26;5.05;;;2.08;;
32297;SDS011;18782;48.984;8.548;2023-05-07T03:20:55;4.22;;;2.30;;
32297;SDS011;18782;48.984;8.548;2023-05-07T03:23:24;3.90;;;2.28;;
32297;SDS011;18782;48.984;8.548;2023-05-07T03:25:51;3.95;;;2.30;;
32297;SDS011;18782;48.984;8.548;2023-05-07T03:28:20;4.03;;;2.10;;
32297;SDS011;18782;48.984;8.548;2023-05-07T03:30:52;5.13;;;2.40;;
32297;SDS011;18782;48.984;8.548;2023-05-07T03:33:21;6.47;;;1.92;;
32297;SDS011;18782;48.984;8.548;2023-05-07T03:35:49;3.47;;;2.35;;
32297;SDS011;18782;48.984;8.548;2023-05-07T03:38:22;5.82;;;2.38;;
32297;SDS011;18782;48.984;8.548;2023-05-07T03:40:50;6.85;;;2.30;;
32297;SDS011;18782;48.984;8.548;2023-05-07T03:43:18;3.85;;;2.00;;
32297;SDS011;18782;48.984;8.548;2023-05-07T03:45:51;3.87;;;2.47;;
32297;SDS011;18782;48.984;8.548;2023-05-07T03:48:22;6.65;;;2.22;;
32297;SDS011;18782;48.984;8.548;2023-05-07T03:50:54;4.53;;;2.60;;
32297;SDS011;18782;48.984;8.548;2023-05-07T03:53:23;4.15;;;2.88;;
32297;SDS011;18782;48.984;8.548;2023-05-07T03:55:51;4.20;;;2.63;;
32297;SDS011;18782;48.984;8.548;2023-05-07T03:58:19;4.32;;;2.50;;
32297;SDS011;18782;48.984;8.548;2023-05-07T04:00:47;4.70;;;2.90;;
32297;SDS011;18782;48.984;8.548;2023-05-07T04:03:25;7.18;;;3.03;;
32297;SDS011;18782;48.984;8.548;2023-05-07T04:05:56;2.95;;;2.30;;
32297;SDS011;18782;48.984;8.548;2023-05-07T04:08:25;4.00;;;2.47;;
32297;SDS011;18782;48.984;8.548;2023-05-07T04:10:54;5.15;;;2.67;;
32297;SDS011;18782;48.984;8.548;2023-05-07T04:13:24;3.55;;;2.30;;
32297;SDS011;18782;48.984;8.548;2023-05-07T04:15:51;4.80;;;2.30;;
32297;SDS011;18782;48.984;8.548;2023-05-07T04:18:19;3.40;;;2.35;;
32297;SDS011;18782;48.984;8.548;2023-05-07T04:20:48;3.35;;;2.30;;
32297;SDS011;18782;48.984;8.548;2023-05-07T04:23:16;5.70;;;2.85;;
32297;SDS011;18782;48.984;8.548;2023-05-07T04:25:45;4.47;;;2.65;;
32297;SDS011;18782;48.984;8.548;2023-05-07T04:28:31;2.95;;;2.40;;
32297;SDS011;18782;48.984;8.548;2023-05-07T04:30:59;5.45;;;2.50;;
32297;SDS011;18782;48.984;8.548;2023-05-07T04:33:29;6.53;;;2.60;;
32297;SDS011;18782;48.984;8.548;2023-05-07T04:35:57;3.83;;;2.63;;
32297;SDS011;18782;48.984;8.548;2023-05-07T04:38:29;5.43;;;2.20;;
32297;SDS011;18782;48.984;8.548;2023-05-07T04:41:03;4.28;;;2.38;;
32297;SDS011;18782;48.984;8.548;2023-05-07T04:43:36;4.65;;;2.70;;
32297;SDS011;18782;48.984;8.548;2023-05-07T04:46:04;3.30;;;2.47;;
32297;SDS011;18782;48.984;8.548;2023-05-07T04:48:32;8.32;;;2.50;;
32297;SDS011;18782;48.984;8.548;2023-05-07T04:51:01;2.92;;;2.10;;
32297;SDS011;18782;48.984;8.548;2023-05-07T04:53:29;3.22;;;1.88;;
32297;SDS011;18782;48.984;8.548;2023-05-07T04:55:57;5.05;;;2.50;;
32297;SDS011;18782;48.984;8.548;2023-05-07T04:58:32;3.83;;;2.00;;
32297;SDS011;18782;48.984;8.548;2023-05-07T05:01:00;5.50;;;1.90;;
32297;SDS011;18782;48.984;8.548;2023-05-07T05:03:28;4.95;;;2.63;;
32297;SDS011;18782;48.984;8.548;2023-05-07T05:05:57;6.57;;;2.45;;
32297;SDS011;18782;48.984;8.548;2023-05-07T05:08:29;3.33;;;1.90;;
32297;SDS011;18782;48.984;8.548;2023-05-07T05:10:57;5.05;;;2.85;;
32297;SDS011;18782;48.984;8.548;2023-05-07T05:13:24;4.53;;;2.63;;
32297;SDS011;18782;48.984;8.548;2023-05-07T05:23:49;6.85;;;3.50;;
32297;SDS011;18782;48.984;8.548;2023-05-07T05:26:20;8.02;;;3.72;;
32297;SDS011;18782;48.984;8.548;2023-05-07T05:28:48;4.63;;;2.88;;
32297;SDS011;18782;48.984;8.548;2023-05-07T05:31:19;3.75;;;2.20;;
32297;SDS011;18782;48.984;8.548;2023-05-07T05:33:48;4.22;;;2.45;;
32297;SDS011;18782;48.984;8.548;2023-05-07T05:36:16;5.45;;;2.40;;
32297;SDS011;18782;48.984;8.548;2023-05-07T05:38:45;4.28;;;2.65;;
32297;SDS011;18782;48.984;8.548;2023-05-07T05:41:14;4.97;;;2.40;;
32297;SDS011;18782;48.984;8.548;2023-05-07T05:43:42;5.55;;;3.17;;
32297;SDS011;18782;48.984;8.548;2023-05-07T05:46:10;7.50;;;3.00;;
32297;SDS011;18782;48.984;8.548;2023-05-07T05:48:38;5.82;;;2.35;;
32297;SDS011;18782;48.984;8.548;2023-05-07T05:51:06;4.57;;;2.85;;
32297;SDS011;18782;48.984;8.548;2023-05-07T05:53:34;4.63;;;2.50;;
32297;SDS011;18782;48.984;8.548;2023-05-07T05:56:02;5.95;;;2.38;;
32297;SDS011;18782;48.984;8.548;2023-05-07T05:58:32;3.88;;;2.10;;
32297;SDS011;18782;48.984;8.548;2023-05-07T06:01:03;4.73;;;2.17;;
32297;SDS011;18782;48.984;8.548;2023-05-07T06:03:34;8.63;;;5.15;;
32297;SDS011;18782;48.984;8.548;2023-05-07T06:06:06;8.43;;;5.53;;
32297;SDS011;18782;48.984;8.548;2023-05-07T06:08:34;6.63;;;3.30;;
32297;SDS011;18782;48.984;8.548;2023-05-07T06:11:02;4.93;;;2.78;;
32297;SDS011;18782;48.984;8.548;2023-05-07T06:13:35;4.63;;;2.40;;
32297;SDS011;18782;48.984;8.548;2023-05-07T06:16:02;3.67;;;2.00;;
32297;SDS011;18782;48.984;8.548;2023-05-07T06:18:31;3.75;;;2.42;;
32297;SDS011;18782;48.984;8.548;2023-05-07T06:20:58;3.20;;;2.38;;
32297;SDS011;18782;48.984;8.548;2023-05-07T06:23:32;4.57;;;2.10;;
32297;SDS011;18782;48.984;8.548;2023-05-07T06:26:00;3.83;;;2.40;;
32297;SDS011;18782;48.984;8.548;2023-05-07T06:28:35;3.35;;;2.40;;
32297;SDS011;18782;48.984;8.548;2023-05-07T06:33:39;4.28;;;2.28;;
32297;SDS011;18782;48.984;8.548;2023-05-07T06:36:06;3.92;;;2.28;;
32297;SDS011;18782;48.984;8.548;2023-05-07T06:38:35;2.78;;;2.30;;
32297;SDS011;18782;48.984;8.548;2023-05-07T06:41:02;3.08;;;2.35;;
32297;SDS011;18782;48.984;8.548;2023-05-07T06:43:30;4.10;;;2.47;;
32297;SDS011;18782;48.984;8.548;2023-05-07T06:46:24;3.15;;;2.10;;
32297;SDS011;18782;48.984;8.548;2023-05-07T06:48:52;3.50;;;2.10;;
32297;SDS011;18782;48.984;8.548;2023-05-07T06:51:20;2.90;;;1.90;;
32297;SDS011;18782;48.984;8.548;2023-05-07T06:53:48;3.58;;;1.88;;
32297;SDS011;18782;48.984;8.548;2023-05-07T06:56:15;2.60;;;1.88;;
32297;SDS011;18782;48.984;8.548;2023-05-07T06:58:43;3.63;;;1.95;;
32297;SDS011;18782;48.984;8.548;2023-05-07T07:01:11;2.70;;;1.83;;
32297;SDS011;18782;48.984;8.548;2023-05-07T07:03:40;5.10;;;2.90;;
32297;SDS011;18782;48.984;8.548;2023-05-07T07:06:08;4.75;;;2.30;;
32297;SDS011;18782;48.984;8.548;2023-05-07T07:08:36;2.08;;;1.60;;
32297;SDS011;18782;48.984;8.548;2023-05-07T07:11:05;3.58;;;1.85;;
32297;SDS011;18782;48.984;8.548;2023-05-07T07:13:33;2.47;;;1.20;;
32297;SDS011;18782;48.984;8.548;2023-05-07T07:16:02;3.60;;;2.00;;
32297;SDS011;18782;48.984;8.548;2023-05-07T07:18:31;3.40;;;1.33;;
32297;SDS011;18782;48.984;8.548;2023-05-07T07:20:59;2.40;;;1.15;;
32297;SDS011;18782;48.984;8.548;2023-05-07T07:23:27;2.00;;;1.30;;
32297;SDS011;18782;48.984;8.548;2023-05-07T07:25:55;1.58;;;1.10;;
32297;SDS011;18782;48.984;8.548;2023-05-07T07:28:23;3.88;;;1.38;;
32297;SDS011;18782;48.984;8.548;2023-05-07T07:30:51;1.95;;;1.20;;
32297;SDS011;18782;48.984;8.548;2023-05-07T07:33:19;2.72;;;1.30;;
32297;SDS011;18782;48.984;8.548;2023-05-07T07:35:47;2.92;;;1.13;;
32297;SDS011;18782;48.984;8.548;2023-05-07T07:38:16;2.17;;;1.10;;
32297;SDS011;18782;48.984;8.548;2023-05-07T07:40:44;3.15;;;1.40;;
32297;SDS011;18782;48.984;8.548;2023-05-07T07:43:12;1.52;;;1.17;;
32297;SDS011;18782;48.984;8.548;2023-05-07T07:45:40;2.55;;;1.23;;
32297;SDS011;18782;48.984;8.548;2023-05-07T07:48:08;3.40;;;1.40;;
32297;SDS011;18782;48.984;8.548;2023-05-07T07:50:37;2.70;;;1.48;;
32297;SDS011;18782;48.984;8.548;2023-05-07T07:53:13;2.75;;;1.02;;
32297;SDS011;18782;48.984;8.548;2023-05-07T07:55:42;1.70;;;1.20;;
32297;SDS011;18782;48.984;8.548;2023-05-07T07:58:13;2.13;;;1.33;;
32297;SDS011;18782;48.984;8.548;2023-05-07T08:00:41;1.70;;;0.95;;
32297;SDS011;18782;48.984;8.548;2023-05-07T08:03:10;2.67;;;1.38;;
32297;SDS011;18782;48.984;8.548;2023-05-07T08:05:42;1.85;;;1.50;;
32297;SDS011;18782;48.984;8.548;2023-05-07T08:08:10;1.65;;;1.20;;
32297;SDS011;18782;48.984;8.548;2023-05-07T08:10:39;1.92;;;1.10;;
32297;SDS011;18782;48.984;8.548;2023-05-07T08:13:15;2.35;;;1.10;;
32297;SDS011;18782;48.984;8.548;2023-05-07T08:15:43;2.15;;;1.40;;
32297;SDS011;18782;48.984;8.548;2023-05-07T08:18:13;1.90;;;0.98;;
32297;SDS011;18782;48.984;8.548;2023-05-07T08:20:42;1.83;;;1.00;;
32297;SDS011;18782;48.984;8.548;2023-05-07T08:23:14;4.10;;;1.50;;
32297;SDS011;18782;48.984;8.548;2023-05-07T08:25:43;2.38;;;1.30;;
32297;SDS011;18782;48.984;8.548;2023-05-07T08:28:11;4.45;;;1.42;;
32297;SDS011;18782;48.984;8.548;2023-05-07T08:30:41;3.00;;;1.00;;
32297;SDS011;18782;48.984;8.548;2023-05-07T08:33:09;2.45;;;0.90;;
32297;SDS011;18782;48.984;8.548;2023-05-07T08:35:37;2.08;;;1.13;;
32297;SDS011;18782;48.984;8.548;2023-05-07T08:38:06;2.03;;;1.20;;
32297;SDS011;18782;48.984;8.548;2023-05-07T08:40:36;2.08;;;1.40;;
32297;SDS011;18782;48.984;8.548;2023-05-07T08:43:08;1.55;;;1.10;;
32297;SDS011;18782;48.984;8.548;2023-05-07T08:45:43;1.83;;;1.20;;
32297;SDS011;18782;48.984;8.548;2023-05-07T08:48:15;2.15;;;1.25;;
32297;SDS011;18782;48.984;8.548;2023-05-07T08:50:50;2.83;;;1.20;;
32297;SDS011;18782;48.984;8.548;2023-05-07T08:53:18;2.85;;;1.23;;
32297;SDS011;18782;48.984;8.548;2023-05-07T08:55:48;7.97;;;1.33;;
32297;SDS011;18782;48.984;8.548;2023-05-07T08:58:16;4.20;;;1.17;;
32297;SDS011;18782;48.984;8.548;2023-05-07T09:00:45;2.15;;;1.40;;
32297;SDS011;18782;48.984;8.548;2023-05-07T09:03:14;1.75;;;1.20;;
32297;SDS011;18782;48.984;8.548;2023-05-07T09:05:46;2.03;;;1.30;;
32297;SDS011;18782;48.984;8.548;2023-05-07T09:08:16;2.88;;;1.48;;
32297;SDS011;18782;48.984;8.548;2023-05-07T09:10:46;3.55;;;1.77;;
32297;SDS011;18782;48.984;8.548;2023-05-07T09:13:16;5.78;;;1.88;;
32297;SDS011;18782;48.984;8.548;2023-05-07T09:15:46;1.70;;;1.33;;
32297;SDS011;18782;48.984;8.548;2023-05-07T09:18:14;2.25;;;1.80;;
32297;SDS011;18782;48.984;8.548;2023-05-07T09:20:44;1.90;;;1.48;;
32297;SDS011;18782;48.984;8.548;2023-05-07T09:23:12;3.25;;;1.10;;
32297;SDS011;18782;48.984;8.548;2023-05-07T09:25:42;3.33;;;1.65;;
32297;SDS011;18782;48.984;8.548;2023-05-07T09:28:23;2.85;;;1.60;;
32297;SDS011;18782;48.984;8.548;2023-05-07T09:30:52;4.38;;;1.70;;
32297;SDS011;18782;48.984;8.548;2023-05-07T09:33:19;3.25;;;1.73;;
32297;SDS011;18782;48.984;8.548;2023-05-07T09:35:51;5.60;;;1.80;;
32297;SDS011;18782;48.984;8.548;2023-05-07T09:38:20;3.47;;;1.70;;
32297;SDS011;18782;48.984;8.548;2023-05-07T09:41:01;2.85;;;1.60;;
32297;SDS011;18782;48.984;8.548;2023-05-07T09:43:32;2.65;;;1.40;;
32297;SDS011;18782;48.984;8.548;2023-05-07T09:46:05;2.50;;;1.42;;
32297;SDS011;18782;48.984;8.548;2023-05-07T09:48:36;3.63;;;1.60;;
32297;SDS011;18782;48.984;8.548;2023-05-07T09:51:10;2.72;;;1.38;;
32297;SDS011;18782;48.984;8.548;2023-05-07T09:53:45;3.20;;;1.15;;
32297;SDS011;18782;48.984;8.548;2023-05-07T09:56:13;2.90;;;1.55;;
32297;SDS011;18782;48.984;8.548;2023-05-07T09:58:42;1.95;;;1.40;;
32297;SDS011;18782;48.984;8.548;2023-05-07T10:01:12;6.13;;;1.63;;
32297;SDS011;18782;48.984;8.548;2023-05-07T10:03:41;4.28;;;1.40;;
32297;SDS011;18782;48.984;8.548;2023-05-07T10:06:11;6.05;;;2.35;;
32297;SDS011;18782;48.984;8.548;2023-05-07T10:08:40;2.60;;;1.77;;
32297;SDS011;18782;48.984;8.548;2023-05-07T10:11:10;1.95;;;1.50;;
32297;SDS011;18782;48.984;8.548;2023-05-07T10:13:37;4.28;;;1.60;;
32297;SDS011;18782;48.984;8.548;2023-05-07T10:16:08;2.45;;;1.50;;
32297;SDS011;18782;48.984;8.548;2023-05-07T10:18:43;3.63;;;1.55;;
32297;SDS011;18782;48.984;8.548;2023-05-07T10:21:16;3.30;;;1.60;;
32297;SDS011;18782;48.984;8.548;2023-05-07T10:23:48;2.00;;;1.40;;
32297;SDS011;18782;48.984;8.548;2023-05-07T10:26:18;3.63;;;1.65;;
32297;SDS011;18782;48.984;8.548;2023-05-07T10:28:50;2.88;;;1.40;;
32297;SDS011;18782;48.984;8.548;2023-05-07T10:31:31;2.63;;;1.87;;
32297;SDS011;18782;48.984;8.548;2023-05-07T10:34:12;2.45;;;1.55;;
32297;SDS011;18782;48.984;8.548;2023-05-07T10:36:44;2.67;;;1.42;;
32297;SDS011;18782;48.984;8.548;2023-05-07T10:39:12;1.80;;;1.40;;
32297;SDS011;18782;48.984;8.548;2023-05-07T10:41:40;2.50;;;1.75;;
32297;SDS011;18782;48.984;8.548;2023-05-07T10:44:09;5.15;;;2.88;;
32297;SDS011;18782;48.984;8.548;2023-05-07T10:46:37;5.07;;;2.13;;
32297;SDS011;18782;48.984;8.548;2023-05-07T10:49:12;3.70;;;1.70;;
32297;SDS011;18782;48.984;8.548;2023-05-07T10:52:12;2.60;;;1.70;;
32297;SDS011;18782;48.984;8.548;2023-05-07T10:58:22;1.73;;;1.27;;
32297;SDS011;18782;48.984;8.548;2023-05-07T11:01:07;3.10;;;1.73;;
32297;SDS011;18782;48.984;8.548;2023-05-07T11:04:12;3.25;;;1.88;;
32297;SDS011;18782;48.984;8.548;2023-05-07T11:09:59;2.70;;;1.70;;
32297;SDS011;18782;48.984;8.548;2023-05-07T11:13:06;3.47;;;1.65;;
32297;SDS011;18782;48.984;8.548;2023-05-07T11:15:44;2.78;;;1.58;;
32297;SDS011;18782;48.984;8.548;2023-05-07T11:18:22;2.92;;;1.60;;
32297;SDS011;18782;48.984;8.548;2023-05-07T11:20:53;4.38;;;1.48;;
32297;SDS011;18782;48.984;8.548;2023-05-07T11:23:56;1.60;;;1.27;;
32297;SDS011;18782;48.984;8.548;2023-05-07T11:26:41;4.53;;;2.75;;
32297;SDS011;18782;48.984;8.548;2023-05-07T11:29:11;3.05;;;1.48;;
32297;SDS011;18782;48.984;8.548;2023-05-07T11:31:41;2.60;;;1.20;;
32297;SDS011;18782;48.984;8.548;2023-05-07T11:34:11;3.58;;;1.45;;
32297;SDS011;18782;48.984;8.548;2023-05-07T11:36:44;2.42;;;1.40;;
32297;SDS011;18782;48.984;8.548;2023-05-07T11:39:29;1.42;;;1.33;;
32297;SDS011;18782;48.984;8.548;2023-05-07T11:41:59;3.63;;;1.95;;
32297;SDS011;18782;48.984;8.548;2023-05-07T11:44:44;2.55;;;1.70;;
32297;SDS011;18782;48.984;8.548;2023-05-07T11:47:16;2.20;;;1.30;;
32297;SDS011;18782;48.984;8.548;2023-05-07T11:49:45;2.63;;;1.48;;
32297;SDS011;18782;48.984;8.548;2023-05-07T11:52:15;3.50;;;1.75;;
32297;SDS011;18782;48.984;8.548;2023-05-07T11:54:48;2.05;;;1.40;;
32297;SDS011;18782;48.984;8.548;2023-05-07T11:57:16;3.58;;;1.70;;
32297;SDS011;18782;48.984;8.548;2023-05-07T11:59:44;2.70;;;1.48;;
32297;SDS011;18782;48.984;8.548;2023-05-07T12:02:13;2.78;;;1.70;;
32297;SDS011;18782;48.984;8.548;2023-05-07T12:04:41;1.92;;;1.60;;
32297;SDS011;18782;48.984;8.548;2023-05-07T12:07:11;3.60;;;1.48;;
32297;SDS011;18782;48.984;8.548;2023-05-07T12:09:41;3.63;;;1.33;;
32297;SDS011;18782;48.984;8.548;2023-05-07T12:12:09;2.63;;;1.48;;
32297;SDS011;18782;48.984;8.548;2023-05-07T12:14:37;2.30;;;1.50;;
32297;SDS011;18782;48.984;8.548;2023-05-07T12:17:05;2.78;;;1.60;;
32297;SDS011;18782;48.984;8.548;2023-05-07T12:19:34;4.05;;;1.63;;
32297;SDS011;18782;48.984;8.548;2023-05-07T12:22:02;4.82;;;1.50;;
32297;SDS011;18782;48.984;8.548;2023-05-07T12:24:42;1.92;;;1.50;;
32297;SDS011;18782;48.984;8.548;2023-05-07T12:27:10;3.00;;;1.67;;
32297;SDS011;18782;48.984;8.548;2023-05-07T12:29:38;2.17;;;1.33;;
32297;SDS011;18782;48.984;8.548;2023-05-07T12:32:12;2.30;;;1.50;;
32297;SDS011;18782;48.984;8.548;2023-05-07T12:34:41;5.00;;;1.58;;
32297;SDS011;18782;48.984;8.548;2023-05-07T12:45:26;1.80;;;1.25;;
32297;SDS011;18782;48.984;8.548;2023-05-07T12:47:53;2.33;;;1.30;;
32297;SDS011;18782;48.984;8.548;2023-05-07T12:50:21;2.70;;;1.83;;
32297;SDS011;18782;48.984;8.548;2023-05-07T12:52:50;3.45;;;1.30;;
32297;SDS011;18782;48.984;8.548;2023-05-07T12:55:17;2.08;;;1.35;;
32297;SDS011;18782;48.984;8.548;2023-05-07T12:57:45;2.22;;;1.40;;
32297;SDS011;18782;48.984;8.548;2023-05-07T13:00:16;4.13;;;1.33;;
32297;SDS011;18782;48.984;8.548;2023-05-07T13:02:45;2.85;;;1.40;;
32297;SDS011;18782;48.984;8.548;2023-05-07T13:05:13;1.75;;;1.40;;
32297;SDS011;18782;48.984;8.548;2023-05-07T13:07:41;2.65;;;1.20;;
32297;SDS011;18782;48.984;8.548;2023-05-07T13:10:19;1.90;;;1.40;;
32297;SDS011;18782;48.984;8.548;2023-05-07T13:12:47;2.58;;;1.42;;
32297;SDS011;18782;48.984;8.548;2023-05-07T13:15:15;2.97;;;1.30;;
32297;SDS011;18782;48.984;8.548;2023-05-07T13:17:43;1.50;;;1.10;;
32297;SDS011;18782;48.984;8.548;2023-05-07T13:20:12;2.70;;;1.40;;
32297;SDS011;18782;48.984;8.548;2023-05-07T13:22:40;4.13;;;1.10;;
32297;SDS011;18782;48.984;8.548;2023-05-07T13:25:08;2.55;;;1.00;;
32297;SDS011;18782;48.984;8.548;2023-05-07T13:27:36;0.93;;;0.70;;
32297;SDS011;18782;48.984;8.548;2023-05-07T13:30:04;3.10;;;0.82;;
32297;SDS011;18782;48.984;8.548;2023-05-07T13:32:33;2.40;;;0.70;;
32297;SDS011;18782;48.984;8.548;2023-05-07T13:35:00;1.42;;;0.63;;
32297;SDS011;18782;48.984;8.548;2023-05-07T13:37:29;1.92;;;0.90;;
32297;SDS011;18782;48.984;8.548;2023-05-07T13:39:57;2.33;;;0.80;;
32297;SDS011;18782;48.984;8.548;2023-05-07T13:42:25;1.45;;;1.13;;
32297;SDS011;18782;48.984;8.548;2023-05-07T13:44:53;1.27;;;0.55;;
32297;SDS011;18782;48.984;8.548;2023-05-07T13:47:20;1.27;;;0.60;;
32297;SDS011;18782;48.984;8.548;2023-05-07T13:49:50;1.35;;;0.70;;
32297;SDS011;18782;48.984;8.548;2023-05-07T13:52:17;3.90;;;0.70;;
32297;SDS011;18782;48.984;8.548;2023-05-07T13:54:46;1.45;;;0.80;;
32297;SDS011;18782;48.984;8.548;2023-05-07T13:57:14;3.05;;;0.70;;
32297;SDS011;18782;48.984;8.548;2023-05-07T13:59:42;3.03;;;0.80;;
32297;SDS011;18782;48.984;8.548;2023-05-07T14:02:09;2.38;;;0.63;;
32297;SDS011;18782;48.984;8.548;2023-05-07T14:04:37;2.00;;;1.13;;
32297;SDS011;18782;48.984;8.548;2023-05-07T14:07:04;2.58;;;0.32;;
32297;SDS011;18782;48.984;8.548;2023-05-07T14:09:32;2.13;;;0.60;;
32297;SDS011;18782;48.984;8.548;2023-05-07T14:12:01;1.23;;;0.43;;
32297;SDS011;18782;48.984;8.548;2023-05-07T14:14:29;4.25;;;0.60;;
32297;SDS011;18782;48.984;8.548;2023-05-07T14:16:56;1.08;;;0.50;;
32297;SDS011;18782;48.984;8.548;2023-05-07T14:19:25;2.22;;;1.00;;
32297;SDS011;18782;48.984;8.548;2023-05-07T14:21:52;3.00;;;0.88;;
32297;SDS011;18782;48.984;8.548;2023-05-07T14:24:21;2.55;;;1.10;;
32297;SDS011;18782;48.984;8.548;2023-05-07T14:27:04;2.17;;;0.50;;
32297;SDS011;18782;48.984;8.548;2023-05-07T14:29:32;2.25;;;0.38;;
32297;SDS011;18782;48.984;8.548;2023-05-07T14:32:01;1.27;;;0.50;;
32297;SDS011;18782;48.984;8.548;2023-05-07T14:34:29;2.13;;;0.70;;
32297;SDS011;18782;48.984;8.548;2023-05-07T14:36:57;1.30;;;0.32;;
32297;SDS011;18782;48.984;8.548;2023-05-07T14:39:25;1.60;;;0.52;;
32297;SDS011;18782;48.984;8.548;2023-05-07T14:41:53;0.98;;;0.50;;
32297;SDS011;18782;48.984;8.548;2023-05-07T14:44:23;1.25;;;0.50;;
32297;SDS011;18782;48.984;8.548;2023-05-07T14:46:51;3.63;;;0.82;;
32297;SDS011;18782;48.984;8.548;2023-05-07T14:49:19;1.40;;;0.60;;
32297;SDS011;18782;48.984;8.548;2023-05-07T14:51:47;1.70;;;0.70;;
32297;SDS011;18782;48.984;8.548;2023-05-07T14:54:14;1.67;;;0.80;;
32297;SDS011;18782;48.984;8.548;2023-05-07T14:56:42;1.17;;;0.52;;
32297;SDS011;18782;48.984;8.548;2023-05-07T14:59:09;2.00;;;0.45;;
32297;SDS011;18782;48.984;8.548;2023-05-07T15:01:38;1.52;;;0.50;;
32297;SDS011;18782;48.984;8.548;2023-05-07T15:04:11;0.68;;;0.40;;
32297;SDS011;18782;48.984;8.548;2023-05-07T15:06:39;2.42;;;0.47;;
32297;SDS011;18782;48.984;8.548;2023-05-07T15:09:06;1.70;;;0.50;;
32297;SDS011;18782;48.984;8.548;2023-05-07T15:11:35;0.75;;;0.50;;
32297;SDS011;18782;48.984;8.548;2023-05-07T15:14:03;1.85;;;0.70;;
32297;SDS011;18782;48.984;8.548;2023-05-07T15:16:31;1.67;;;0.70;;
32297;SDS011;18782;48.984;8.548;2023-05-07T15:19:00;0.98;;;0.47;;
32297;SDS011;18782;48.984;8.548;2023-05-07T15:21:27;2.45;;;0.60;;
32297;SDS011;18782;48.984;8.548;2023-05-07T15:23:57;1.77;;;0.68;;
32297;SDS011;18782;48.984;8.548;2023-05-07T15:26:24;1.02;;;0.50;;
32297;SDS011;18782;48.984;8.548;2023-05-07T15:28:52;1.65;;;0.70;;
32297;SDS011;18782;48.984;8.548;2023-05-07T15:31:21;1.15;;;0.70;;
32297;SDS011;18782;48.984;8.548;2023-05-07T15:33:49;1.77;;;0.63;;
32297;SDS011;18782;48.984;8.548;2023-05-07T15:36:19;1.95;;;0.70;;
32297;SDS011;18782;48.984;8.548;2023-05-07T15:38:46;2.05;;;1.02;;
32297;SDS011;18782;48.984;8.548;2023-05-07T15:41:14;1.23;;;0.70;;
32297;SDS011;18782;48.984;8.548;2023-05-07T15:43:43;2.17;;;0.77;;
32297;SDS011;18782;48.984;8.548;2023-05-07T15:46:16;1.52;;;0.63;;